createdAt,value
2019-01-20T10:21:43.514Z,20.30
2019-01-20T10:24:11.464Z,17.87
2019-01-20T10:26:40.133Z,16.17
2019-01-20T10:29:08.977Z,15.23
2019-01-20T10:31:36.515Z,14.07
2019-01-20T10:34:04.066Z,12.70
2019-01-20T10:36:33.172Z,10.70
2019-01-20T10:39:01.207Z,10.30
2019-01-20T10:41:28.773Z,8.97
2019-01-20T10:44:02.105Z,7.90
2019-01-20T10:46:26.605Z,8.00
2019-01-20T10:48:54.358Z,6.80
2019-01-20T10:51:21.932Z,7.40
2019-01-20T10:53:53.147Z,7.30
2019-01-20T10:59:15.065Z,29.20
2019-01-20T11:01:42.985Z,30.00
2019-01-20T11:04:10.624Z,31.20
2019-01-20T11:06:38.121Z,28.62
2019-01-20T11:09:06.408Z,31.33
2019-01-20T11:11:34.180Z,26.95
2019-01-20T11:14:01.841Z,25.43
2019-01-20T11:16:29.885Z,26.93
2019-01-20T11:18:57.516Z,25.55
2019-01-20T11:21:25.326Z,26.45
2019-01-20T11:23:54.022Z,25.65
2019-01-20T11:26:27.108Z,26.73
2019-01-20T11:28:54.961Z,27.98
2019-01-20T11:31:22.484Z,25.32
2019-01-20T11:33:50.082Z,28.12
2019-01-20T11:36:17.659Z,24.80
2019-01-20T11:38:45.414Z,27.27
2019-01-20T11:41:13.468Z,28.12
2019-01-20T11:46:12.509Z,29.85
2019-01-20T11:48:40.462Z,26.25
2019-01-20T11:51:08.098Z,27.45
2019-01-20T11:53:35.786Z,26.45
2019-01-20T11:56:03.717Z,29.32
2019-01-20T11:58:31.315Z,25.30
2019-01-20T12:00:58.978Z,27.32
2019-01-20T12:03:26.911Z,27.45
2019-01-20T12:05:54.726Z,26.52
2019-01-20T12:08:30.516Z,27.42
2019-01-20T12:10:54.444Z,28.05
2019-01-20T12:13:28.281Z,25.88
2019-01-20T12:15:55.894Z,28.73
2019-01-20T12:18:23.541Z,28.52
2019-01-20T12:20:51.313Z,28.50
2019-01-20T12:23:18.796Z,29.00
2019-01-20T12:25:46.399Z,26.55
2019-01-20T12:28:13.959Z,27.40
2019-01-20T12:30:42.032Z,28.95
2019-01-20T12:33:09.523Z,28.50
2019-01-20T12:35:38.349Z,29.40
2019-01-20T12:38:05.983Z,28.87
2019-01-20T12:40:44.496Z,27.25
2019-01-20T12:43:12.180Z,27.87
2019-01-20T12:45:39.764Z,29.45
2019-01-20T12:48:08.140Z,26.93
2019-01-20T12:50:35.735Z,27.58
2019-01-20T12:53:04.119Z,29.75
2019-01-20T12:55:31.640Z,29.05
2019-01-20T12:57:59.473Z,29.25
2019-01-20T13:00:27.125Z,27.73
2019-01-20T13:02:54.858Z,27.40
2019-01-20T13:05:22.281Z,27.82
2019-01-20T13:07:49.805Z,28.52
2019-01-20T13:10:17.518Z,30.40
2019-01-20T13:12:45.453Z,27.32
2019-01-20T13:15:14.997Z,28.55
2019-01-20T13:17:43.183Z,29.50
2019-01-20T13:20:13.984Z,98.45
2019-01-20T13:22:41.495Z,42.30
2019-01-20T13:25:10.810Z,44.95
2019-01-20T13:27:38.388Z,29.82
2019-01-20T13:30:09.240Z,30.52
2019-01-20T13:32:36.910Z,31.10
2019-01-20T13:35:05.727Z,33.15
2019-01-20T13:37:33.450Z,29.65
2019-01-20T13:40:03.403Z,29.35
2019-01-20T13:42:31.063Z,29.95
2019-01-20T13:44:58.692Z,28.25
2019-01-20T13:47:26.407Z,28.38
2019-01-20T13:49:54.267Z,28.07
2019-01-20T13:52:22.752Z,29.70
2019-01-20T13:54:50.622Z,28.35
2019-01-20T13:57:18.264Z,27.82
2019-01-20T13:59:45.948Z,28.80
2019-01-20T14:02:13.607Z,27.73
2019-01-20T14:04:41.876Z,29.95
2019-01-20T14:07:09.614Z,29.00
2019-01-20T14:09:37.088Z,27.65
2019-01-20T14:12:04.955Z,30.08
2019-01-20T14:14:32.596Z,29.00
2019-01-20T14:17:01.133Z,27.40
2019-01-20T14:19:28.766Z,29.92
2019-01-20T14:21:56.540Z,32.23
2019-01-20T14:24:24.195Z,29.12
2019-01-20T14:26:51.699Z,28.17
2019-01-20T14:29:19.619Z,29.20
2019-01-20T14:31:47.147Z,28.32
2019-01-20T14:34:14.865Z,28.65
2019-01-20T14:36:42.513Z,28.98
2019-01-20T14:39:12.613Z,29.80
2019-01-20T14:41:40.269Z,29.70
2019-01-20T14:44:07.966Z,28.00
2019-01-20T14:46:36.234Z,30.55
2019-01-20T14:49:04.317Z,30.32
2019-01-20T14:51:31.874Z,28.50
2019-01-20T14:53:59.461Z,27.73
2019-01-20T14:56:27.184Z,29.02
2019-01-20T14:58:54.827Z,29.05
2019-01-20T15:01:22.474Z,28.52
2019-01-20T15:03:49.987Z,30.15
2019-01-20T15:06:17.644Z,30.17
2019-01-20T15:14:30.992Z,28.57
2019-01-20T15:16:58.555Z,33.65
2019-01-20T15:19:26.158Z,30.95
2019-01-20T15:21:53.685Z,28.92
2019-01-20T15:24:22.887Z,30.15
2019-01-20T15:26:50.447Z,30.55
2019-01-20T15:29:17.920Z,30.12
2019-01-20T15:31:45.503Z,30.70
2019-01-20T15:34:13.369Z,29.80
2019-01-20T15:36:40.825Z,32.85
2019-01-20T15:39:08.288Z,30.35
2019-01-20T15:41:35.775Z,29.00
2019-01-20T15:44:03.622Z,31.25
2019-01-20T15:46:31.281Z,31.07
2019-01-20T15:48:58.938Z,29.65
2019-01-20T15:51:26.554Z,29.75
2019-01-20T15:53:54.003Z,30.57
2019-01-20T15:56:21.569Z,32.05
2019-01-20T15:58:49.279Z,30.08
2019-01-20T16:01:17.087Z,30.55
2019-01-20T16:03:47.076Z,30.80
2019-01-20T16:06:14.654Z,32.73
2019-01-20T16:08:42.169Z,33.60
2019-01-20T16:14:21.862Z,6.72
2019-01-20T16:18:26.219Z,8.35
2019-01-20T16:20:55.295Z,8.50
2019-01-20T16:23:23.546Z,8.30
2019-01-20T16:25:51.323Z,7.63
2019-01-20T16:28:19.667Z,8.53
2019-01-20T16:30:49.781Z,9.90
2019-01-20T16:33:18.751Z,6.80
2019-01-20T16:35:46.534Z,8.27
2019-01-20T16:38:14.424Z,6.53
2019-01-20T16:40:42.647Z,6.93
2019-01-20T16:43:10.451Z,7.17
2019-01-20T16:57:32.558Z,31.82
2019-01-20T17:00:00.809Z,34.70
2019-01-20T17:02:28.655Z,32.28
2019-01-20T17:04:56.260Z,31.87
2019-01-20T17:07:25.578Z,32.00
2019-01-20T17:09:53.515Z,31.25
2019-01-20T17:12:21.001Z,29.57
2019-01-20T17:14:48.756Z,29.10
2019-01-20T17:17:16.321Z,28.42
2019-01-20T17:19:44.046Z,29.32
2019-01-20T17:22:11.530Z,31.10
2019-01-20T17:24:39.351Z,30.80
2019-01-20T17:27:09.563Z,30.72
2019-01-20T17:29:37.180Z,28.87
2019-01-20T17:32:05.128Z,30.13
2019-01-20T17:34:32.874Z,32.10
2019-01-20T17:37:00.450Z,32.10
2019-01-20T17:39:28.020Z,31.57
2019-01-20T17:41:57.338Z,28.62
2019-01-20T17:44:25.007Z,31.95
2019-01-20T17:46:52.554Z,31.57
2019-01-20T17:49:20.073Z,31.65
2019-01-20T17:51:47.712Z,32.75
2019-01-20T17:54:15.792Z,32.73
2019-01-20T17:56:43.463Z,37.23
2019-01-20T17:59:10.977Z,25.15
2019-01-20T18:01:38.588Z,30.92
2019-01-20T18:04:08.100Z,30.68
2019-01-20T18:06:35.720Z,31.93
2019-01-20T18:09:08.535Z,30.90
2019-01-20T18:11:36.070Z,21.25
2019-01-20T18:14:06.497Z,22.95
2019-01-20T18:16:34.092Z,27.93
2019-01-20T18:19:01.748Z,26.02
2019-01-20T18:21:29.449Z,29.98
2019-01-20T18:23:57.039Z,28.70
2019-01-20T18:26:25.234Z,29.72
2019-01-20T18:28:52.924Z,29.87
2019-01-20T18:31:21.115Z,31.12
2019-01-20T18:33:48.848Z,26.77
2019-01-20T18:36:16.478Z,29.35
2019-01-20T18:38:44.550Z,26.25
2019-01-20T18:41:12.252Z,25.65
2019-01-20T18:43:39.975Z,25.48
2019-01-20T18:46:07.647Z,24.55
2019-01-20T18:48:35.313Z,23.22
2019-01-20T18:51:03.458Z,24.52
2019-01-20T18:53:31.144Z,22.35
2019-01-20T18:55:58.806Z,23.30
2019-01-20T18:58:26.383Z,22.80
2019-01-20T19:00:53.929Z,21.50
2019-01-20T19:03:21.588Z,20.52
2019-01-20T19:05:49.116Z,19.70
2019-01-20T19:08:17.065Z,21.80
2019-01-20T19:10:45.034Z,21.68
2019-01-20T19:13:12.727Z,23.98
2019-01-20T19:15:40.427Z,20.45
2019-01-20T19:18:08.048Z,22.70
2019-01-20T19:20:35.811Z,21.87
2019-01-20T19:23:03.715Z,21.62
2019-01-20T19:25:31.516Z,22.20
2019-01-20T19:27:59.192Z,22.02
2019-01-20T19:30:31.893Z,22.27
2019-01-20T19:32:59.679Z,20.40
2019-01-20T19:35:28.317Z,22.80
2019-01-20T19:37:56.210Z,24.63
2019-01-20T19:40:23.820Z,21.37
2019-01-20T19:42:51.496Z,23.50
2019-01-20T19:45:19.503Z,22.25
2019-01-20T19:47:47.357Z,20.68
2019-01-20T19:50:15.005Z,22.05
2019-01-20T19:52:42.563Z,22.05
2019-01-20T19:55:19.683Z,20.65
2019-01-20T19:57:47.339Z,19.70
2019-01-20T20:00:19.599Z,24.43
2019-01-20T20:02:47.787Z,21.77
2019-01-20T20:05:16.493Z,20.05
2019-01-20T20:07:44.041Z,21.70
2019-01-20T20:10:14.312Z,25.25
2019-01-20T20:12:42.014Z,23.60
2019-01-20T20:15:13.053Z,26.95
2019-01-20T20:17:40.669Z,23.65
2019-01-20T20:20:09.227Z,23.00
2019-01-20T20:22:36.876Z,22.30
2019-01-20T20:25:05.303Z,21.87
2019-01-20T20:27:32.841Z,23.73
2019-01-20T20:30:00.583Z,20.65
2019-01-20T20:32:28.178Z,21.30
2019-01-20T20:34:55.892Z,22.30
2019-01-20T20:37:23.465Z,23.52
2019-01-20T20:39:51.033Z,22.20
2019-01-20T20:42:18.557Z,22.00
2019-01-20T20:44:46.138Z,22.25
2019-01-20T20:47:13.738Z,21.25
2019-01-20T20:49:41.452Z,21.07
2019-01-20T20:52:09.016Z,21.90
2019-01-20T20:54:37.655Z,22.37
2019-01-20T20:57:05.536Z,20.43
2019-01-20T20:59:33.172Z,21.75
2019-01-20T21:02:00.805Z,22.52
2019-01-20T21:04:28.529Z,20.65
2019-01-20T21:06:56.291Z,20.65
2019-01-20T21:09:23.933Z,20.85
2019-01-20T21:11:51.528Z,19.07
2019-01-20T21:14:19.562Z,22.45
2019-01-20T21:16:47.213Z,20.20
2019-01-20T21:19:14.878Z,22.40
2019-01-20T21:21:42.529Z,21.05
2019-01-20T21:24:10.245Z,26.17
2019-01-20T21:26:38.057Z,32.20
2019-01-20T21:29:05.875Z,27.85
2019-01-20T21:31:33.547Z,27.42
2019-01-20T21:34:01.363Z,28.50
2019-01-20T21:36:29.273Z,28.23
2019-01-20T21:38:56.894Z,28.98
2019-01-20T21:41:24.552Z,23.02
2019-01-20T21:43:52.718Z,21.60
2019-01-20T21:46:20.185Z,22.58
2019-01-20T21:48:47.893Z,20.82
2019-01-20T21:51:15.689Z,20.40
2019-01-20T21:53:43.245Z,22.75
2019-01-20T21:56:10.689Z,21.25
2019-01-20T21:58:38.227Z,21.73
2019-01-20T22:01:05.915Z,20.62
2019-01-20T22:03:33.417Z,23.52
2019-01-20T22:06:00.882Z,21.68
2019-01-20T22:08:28.356Z,21.50
2019-01-20T22:10:55.871Z,20.08
2019-01-20T22:13:23.522Z,21.48
2019-01-20T22:15:51.086Z,22.13
2019-01-20T22:18:19.055Z,21.97
2019-01-20T22:20:46.495Z,21.68
2019-01-20T22:23:13.976Z,24.10
2019-01-20T22:25:41.531Z,20.20
2019-01-20T22:28:09.050Z,22.00
2019-01-20T22:30:37.135Z,23.32
2019-01-20T22:33:05.249Z,23.57
2019-01-20T22:35:32.711Z,23.80
2019-01-20T22:38:00.384Z,21.95
2019-01-20T22:40:27.868Z,23.45
2019-01-20T22:42:55.355Z,23.60
2019-01-20T22:45:26.674Z,24.60
2019-01-20T22:47:54.084Z,22.17
2019-01-20T22:50:21.618Z,24.27
2019-01-20T22:52:49.277Z,21.65
2019-01-20T22:55:16.893Z,21.15
2019-01-20T22:57:44.645Z,20.60
2019-01-20T23:00:48.305Z,22.30
2019-01-20T23:03:16.033Z,20.90
2019-01-20T23:05:43.583Z,23.18
2019-01-20T23:08:11.107Z,21.42
2019-01-20T23:10:38.759Z,22.52
2019-01-20T23:13:06.258Z,20.25
2019-01-20T23:15:34.507Z,20.85
2019-01-20T23:18:02.093Z,20.72
2019-01-20T23:20:29.915Z,22.05
2019-01-20T23:22:57.800Z,21.62
2019-01-20T23:25:25.200Z,24.70
2019-01-20T23:27:53.075Z,21.52
2019-01-20T23:30:20.616Z,20.88
2019-01-20T23:32:48.203Z,21.45
2019-01-20T23:35:16.168Z,21.85
2019-01-20T23:37:43.639Z,21.87
2019-01-20T23:40:11.257Z,20.72
2019-01-20T23:42:38.822Z,20.85
2019-01-20T23:45:07.645Z,20.72
2019-01-20T23:47:35.078Z,21.40
2019-01-20T23:50:02.852Z,20.77
2019-01-20T23:52:30.295Z,19.85
2019-01-20T23:54:57.752Z,22.37
2019-01-20T23:57:25.220Z,21.27
2019-01-20T23:59:52.779Z,20.48
